sensor_id;sensor_type;location;lat;lon;timestamp;temperature;humidity
21019;DHT22;10667;51.056;3.732;2022-12-11T00:02:03;3.10;99.90
21019;DHT22;10667;51.056;3.732;2022-12-11T00:04:29;3.20;99.90
21019;DHT22;10667;51.056;3.732;2022-12-11T00:06:56;3.20;99.90
21019;DHT22;10667;51.056;3.732;2022-12-11T00:09:21;3.30;99.90
21019;DHT22;10667;51.056;3.732;2022-12-11T00:11:47;3.20;99.90
21019;DHT22;10667;51.056;3.732;2022-12-11T00:14:14;3.10;99.90
21019;DHT22;10667;51.056;3.732;2022-12-11T00:16:40;3.00;99.90
21019;DHT22;10667;51.056;3.732;2022-12-11T00:19:06;3.10;99.90
21019;DHT22;10667;51.056;3.732;2022-12-11T00:21:33;3.20;99.90
21019;DHT22;10667;51.056;3.732;2022-12-11T00:23:59;3.20;99.90
21019;DHT22;10667;51.056;3.732;2022-12-11T00:26:25;3.10;99.90
21019;DHT22;10667;51.056;3.732;2022-12-11T00:28:55;2.90;99.90
21019;DHT22;10667;51.056;3.732;2022-12-11T00:31:22;3.00;99.90
21019;DHT22;10667;51.056;3.732;2022-12-11T00:33:49;2.90;99.90
21019;DHT22;10667;51.056;3.732;2022-12-11T00:36:24;3.00;99.90
21019;DHT22;10667;51.056;3.732;2022-12-11T00:38:51;2.90;99.90
21019;DHT22;10667;51.056;3.732;2022-12-11T00:41:18;2.90;99.90
21019;DHT22;10667;51.056;3.732;2022-12-11T00:43:44;3.00;99.90
21019;DHT22;10667;51.056;3.732;2022-12-11T00:46:11;3.00;99.90
21019;DHT22;10667;51.056;3.732;2022-12-11T00:48:36;2.90;99.90
21019;DHT22;10667;51.056;3.732;2022-12-11T00:51:02;3.00;99.90
21019;DHT22;10667;51.056;3.732;2022-12-11T00:53:28;3.10;99.90
21019;DHT22;10667;51.056;3.732;2022-12-11T00:55:54;3.10;99.90
21019;DHT22;10667;51.056;3.732;2022-12-11T00:58:20;3.10;99.90
21019;DHT22;10667;51.056;3.732;2022-12-11T01:00:45;3.10;99.90
21019;DHT22;10667;51.056;3.732;2022-12-11T01:03:13;3.00;99.90
21019;DHT22;10667;51.056;3.732;2022-12-11T01:05:39;3.00;99.90
21019;DHT22;10667;51.056;3.732;2022-12-11T01:08:05;2.90;99.90
21019;DHT22;10667;51.056;3.732;2022-12-11T01:10:31;2.90;99.90
21019;DHT22;10667;51.056;3.732;2022-12-11T01:13:03;2.90;99.90
21019;DHT22;10667;51.056;3.732;2022-12-11T01:15:32;2.90;99.90
21019;DHT22;10667;51.056;3.732;2022-12-11T01:17:58;2.80;99.90
21019;DHT22;10667;51.056;3.732;2022-12-11T01:20:25;2.80;99.90
21019;DHT22;10667;51.056;3.732;2022-12-11T01:22:52;2.80;99.90
21019;DHT22;10667;51.056;3.732;2022-12-11T01:25:18;2.80;99.90
21019;DHT22;10667;51.056;3.732;2022-12-11T01:27:44;2.80;99.90
21019;DHT22;10667;51.056;3.732;2022-12-11T01:30:11;2.80;99.90
21019;DHT22;10667;51.056;3.732;2022-12-11T01:32:37;2.80;99.90
21019;DHT22;10667;51.056;3.732;2022-12-11T01:35:04;3.00;99.90
21019;DHT22;10667;51.056;3.732;2022-12-11T01:37:30;2.90;99.90
21019;DHT22;10667;51.056;3.732;2022-12-11T01:39:56;2.80;99.90
21019;DHT22;10667;51.056;3.732;2022-12-11T01:42:22;2.80;99.90
21019;DHT22;10667;51.056;3.732;2022-12-11T01:47:15;2.90;99.90
21019;DHT22;10667;51.056;3.732;2022-12-11T01:49:41;2.90;99.90
21019;DHT22;10667;51.056;3.732;2022-12-11T01:52:15;2.80;99.90
21019;DHT22;10667;51.056;3.732;2022-12-11T01:54:43;2.90;99.90
21019;DHT22;10667;51.056;3.732;2022-12-11T01:57:10;2.90;99.90
21019;DHT22;10667;51.056;3.732;2022-12-11T01:59:40;2.90;99.90
21019;DHT22;10667;51.056;3.732;2022-12-11T02:04:45;2.90;99.90
21019;DHT22;10667;51.056;3.732;2022-12-11T02:07:11;2.90;99.90
21019;DHT22;10667;51.056;3.732;2022-12-11T02:09:38;3.00;99.90
21019;DHT22;10667;51.056;3.732;2022-12-11T02:15:16;2.80;99.90
21019;DHT22;10667;51.056;3.732;2022-12-11T02:17:45;2.80;99.90
21019;DHT22;10667;51.056;3.732;2022-12-11T02:20:37;2.90;99.90
21019;DHT22;10667;51.056;3.732;2022-12-11T02:31:07;3.10;99.90
21019;DHT22;10667;51.056;3.732;2022-12-11T02:33:55;3.00;99.90
21019;DHT22;10667;51.056;3.732;2022-12-11T02:36:25;3.00;99.90
21019;DHT22;10667;51.056;3.732;2022-12-11T02:38:53;3.20;99.90
21019;DHT22;10667;51.056;3.732;2022-12-11T02:41:22;3.20;99.90
21019;DHT22;10667;51.056;3.732;2022-12-11T02:43:50;3.00;99.90
21019;DHT22;10667;51.056;3.732;2022-12-11T02:46:17;3.00;99.90
21019;DHT22;10667;51.056;3.732;2022-12-11T02:48:46;3.20;99.90
21019;DHT22;10667;51.056;3.732;2022-12-11T02:51:14;3.20;99.90
21019;DHT22;10667;51.056;3.732;2022-12-11T02:53:42;3.20;99.90
21019;DHT22;10667;51.056;3.732;2022-12-11T02:56:15;3.20;99.90
21019;DHT22;10667;51.056;3.732;2022-12-11T02:58:49;3.20;99.90
21019;DHT22;10667;51.056;3.732;2022-12-11T03:01:16;3.10;99.90
21019;DHT22;10667;51.056;3.732;2022-12-11T03:03:42;3.10;99.90
21019;DHT22;10667;51.056;3.732;2022-12-11T03:06:11;3.30;99.90
21019;DHT22;10667;51.056;3.732;2022-12-11T03:08:38;3.30;99.90
21019;DHT22;10667;51.056;3.732;2022-12-11T03:11:10;3.30;99.90
21019;DHT22;10667;51.056;3.732;2022-12-11T03:13:36;3.30;99.90
21019;DHT22;10667;51.056;3.732;2022-12-11T03:18:55;3.20;99.90
21019;DHT22;10667;51.056;3.732;2022-12-11T03:21:29;3.10;99.90
21019;DHT22;10667;51.056;3.732;2022-12-11T03:24:49;3.20;99.90
21019;DHT22;10667;51.056;3.732;2022-12-11T03:26:57;3.10;99.90
21019;DHT22;10667;51.056;3.732;2022-12-11T03:29:50;3.00;99.90
21019;DHT22;10667;51.056;3.732;2022-12-11T03:32:21;3.00;99.90
21019;DHT22;10667;51.056;3.732;2022-12-11T03:37:42;3.10;99.90
21019;DHT22;10667;51.056;3.732;2022-12-11T03:40:14;3.10;99.90
21019;DHT22;10667;51.056;3.732;2022-12-11T03:42:44;3.20;99.90
21019;DHT22;10667;51.056;3.732;2022-12-11T03:45:12;3.10;99.90
21019;DHT22;10667;51.056;3.732;2022-12-11T03:47:40;3.10;99.90
21019;DHT22;10667;51.056;3.732;2022-12-11T03:50:10;3.10;99.90
21019;DHT22;10667;51.056;3.732;2022-12-11T03:52:39;3.10;99.90
21019;DHT22;10667;51.056;3.732;2022-12-11T03:55:06;3.20;99.90
21019;DHT22;10667;51.056;3.732;2022-12-11T03:57:35;3.20;99.90
21019;DHT22;10667;51.056;3.732;2022-12-11T04:00:06;3.10;99.90
21019;DHT22;10667;51.056;3.732;2022-12-11T04:02:32;3.20;99.90
21019;DHT22;10667;51.056;3.732;2022-12-11T04:04:57;3.20;99.90
21019;DHT22;10667;51.056;3.732;2022-12-11T04:07:23;3.20;99.90
21019;DHT22;10667;51.056;3.732;2022-12-11T04:09:49;3.30;99.90
21019;DHT22;10667;51.056;3.732;2022-12-11T04:12:14;3.20;99.90
21019;DHT22;10667;51.056;3.732;2022-12-11T04:14:40;3.10;99.90
21019;DHT22;10667;51.056;3.732;2022-12-11T04:17:24;3.20;99.90
21019;DHT22;10667;51.056;3.732;2022-12-11T04:20:09;3.10;99.90
21019;DHT22;10667;51.056;3.732;2022-12-11T04:22:53;3.10;99.90
21019;DHT22;10667;51.056;3.732;2022-12-11T04:25:37;3.10;99.90
21019;DHT22;10667;51.056;3.732;2022-12-11T04:28:03;3.10;99.90
21019;DHT22;10667;51.056;3.732;2022-12-11T04:30:29;3.10;99.90
21019;DHT22;10667;51.056;3.732;2022-12-11T04:32:55;3.10;99.90
21019;DHT22;10667;51.056;3.732;2022-12-11T04:35:21;3.00;99.90
21019;DHT22;10667;51.056;3.732;2022-12-11T04:37:47;3.00;99.90
21019;DHT22;10667;51.056;3.732;2022-12-11T04:40:15;3.00;99.90
21019;DHT22;10667;51.056;3.732;2022-12-11T04:42:41;3.10;99.90
21019;DHT22;10667;51.056;3.732;2022-12-11T04:45:08;3.10;99.90
21019;DHT22;10667;51.056;3.732;2022-12-11T04:47:35;3.20;99.90
21019;DHT22;10667;51.056;3.732;2022-12-11T04:50:02;3.10;99.90
21019;DHT22;10667;51.056;3.732;2022-12-11T04:52:28;3.20;99.90
21019;DHT22;10667;51.056;3.732;2022-12-11T04:54:54;3.20;99.90
21019;DHT22;10667;51.056;3.732;2022-12-11T04:57:20;3.20;99.90
21019;DHT22;10667;51.056;3.732;2022-12-11T04:59:47;3.30;99.90
21019;DHT22;10667;51.056;3.732;2022-12-11T05:02:13;3.20;99.90
21019;DHT22;10667;51.056;3.732;2022-12-11T05:04:40;3.10;99.90
21019;DHT22;10667;51.056;3.732;2022-12-11T05:07:06;3.20;99.90
21019;DHT22;10667;51.056;3.732;2022-12-11T05:09:31;3.10;99.90
21019;DHT22;10667;51.056;3.732;2022-12-11T05:11:57;3.20;99.90
21019;DHT22;10667;51.056;3.732;2022-12-11T05:14:23;3.20;99.90
21019;DHT22;10667;51.056;3.732;2022-12-11T05:16:48;3.30;99.90
21019;DHT22;10667;51.056;3.732;2022-12-11T05:19:14;3.30;99.90
21019;DHT22;10667;51.056;3.732;2022-12-11T05:21:40;3.20;99.90
21019;DHT22;10667;51.056;3.732;2022-12-11T05:24:06;3.00;99.90
21019;DHT22;10667;51.056;3.732;2022-12-11T05:26:31;3.10;99.90
21019;DHT22;10667;51.056;3.732;2022-12-11T05:28:57;3.20;99.90
21019;DHT22;10667;51.056;3.732;2022-12-11T05:31:25;3.10;99.90
21019;DHT22;10667;51.056;3.732;2022-12-11T05:33:52;3.10;99.90
21019;DHT22;10667;51.056;3.732;2022-12-11T05:36:27;3.10;99.90
21019;DHT22;10667;51.056;3.732;2022-12-11T05:38:53;3.20;99.90
21019;DHT22;10667;51.056;3.732;2022-12-11T05:41:21;3.10;99.90
21019;DHT22;10667;51.056;3.732;2022-12-11T05:43:47;3.10;99.90
21019;DHT22;10667;51.056;3.732;2022-12-11T05:46:23;3.20;99.90
21019;DHT22;10667;51.056;3.732;2022-12-11T05:48:52;3.30;99.90
21019;DHT22;10667;51.056;3.732;2022-12-11T05:51:19;3.30;99.90
21019;DHT22;10667;51.056;3.732;2022-12-11T05:53:47;3.40;99.90
21019;DHT22;10667;51.056;3.732;2022-12-11T05:56:18;3.40;99.90
21019;DHT22;10667;51.056;3.732;2022-12-11T05:58:46;3.20;99.90
21019;DHT22;10667;51.056;3.732;2022-12-11T06:01:18;3.20;99.90
21019;DHT22;10667;51.056;3.732;2022-12-11T06:03:44;3.20;99.90
21019;DHT22;10667;51.056;3.732;2022-12-11T06:06:10;3.20;99.90
21019;DHT22;10667;51.056;3.732;2022-12-11T06:08:36;3.20;99.90
21019;DHT22;10667;51.056;3.732;2022-12-11T06:11:02;3.10;99.90
21019;DHT22;10667;51.056;3.732;2022-12-11T06:13:28;3.00;99.90
21019;DHT22;10667;51.056;3.732;2022-12-11T06:15:54;3.10;99.90
21019;DHT22;10667;51.056;3.732;2022-12-11T06:18:20;3.10;99.90
21019;DHT22;10667;51.056;3.732;2022-12-11T06:20:45;3.10;99.90
21019;DHT22;10667;51.056;3.732;2022-12-11T06:23:11;3.20;99.90
21019;DHT22;10667;51.056;3.732;2022-12-11T06:25:38;3.20;99.90
21019;DHT22;10667;51.056;3.732;2022-12-11T06:28:04;3.30;99.90
21019;DHT22;10667;51.056;3.732;2022-12-11T06:30:29;3.30;99.90
21019;DHT22;10667;51.056;3.732;2022-12-11T06:32:57;3.30;99.90
21019;DHT22;10667;51.056;3.732;2022-12-11T06:35:23;3.20;99.90
21019;DHT22;10667;51.056;3.732;2022-12-11T06:37:48;3.20;99.90
21019;DHT22;10667;51.056;3.732;2022-12-11T06:40:14;3.20;99.90
21019;DHT22;10667;51.056;3.732;2022-12-11T06:42:40;3.00;99.90
21019;DHT22;10667;51.056;3.732;2022-12-11T06:45:07;3.10;99.90
21019;DHT22;10667;51.056;3.732;2022-12-11T06:47:33;3.00;99.90
21019;DHT22;10667;51.056;3.732;2022-12-11T06:49:58;2.80;99.90
21019;DHT22;10667;51.056;3.732;2022-12-11T06:52:25;2.90;99.90
21019;DHT22;10667;51.056;3.732;2022-12-11T06:54:54;2.90;99.90
21019;DHT22;10667;51.056;3.732;2022-12-11T06:57:21;2.80;99.90
21019;DHT22;10667;51.056;3.732;2022-12-11T06:59:46;3.00;99.90
21019;DHT22;10667;51.056;3.732;2022-12-11T07:02:13;3.00;99.90
21019;DHT22;10667;51.056;3.732;2022-12-11T07:04:40;3.00;99.90
21019;DHT22;10667;51.056;3.732;2022-12-11T07:07:06;3.00;99.90
21019;DHT22;10667;51.056;3.732;2022-12-11T07:09:32;3.00;99.90
21019;DHT22;10667;51.056;3.732;2022-12-11T07:11:58;3.00;99.90
21019;DHT22;10667;51.056;3.732;2022-12-11T07:14:24;3.00;99.90
21019;DHT22;10667;51.056;3.732;2022-12-11T07:16:50;3.10;99.90
21019;DHT22;10667;51.056;3.732;2022-12-11T07:19:16;3.20;99.90
21019;DHT22;10667;51.056;3.732;2022-12-11T07:21:41;3.10;99.90
21019;DHT22;10667;51.056;3.732;2022-12-11T07:24:07;3.00;99.90
21019;DHT22;10667;51.056;3.732;2022-12-11T07:26:33;2.90;99.90
21019;DHT22;10667;51.056;3.732;2022-12-11T07:28:59;2.90;99.90
21019;DHT22;10667;51.056;3.732;2022-12-11T07:31:27;2.90;99.90
21019;DHT22;10667;51.056;3.732;2022-12-11T07:34:02;2.90;99.90
21019;DHT22;10667;51.056;3.732;2022-12-11T07:36:28;2.90;99.90
21019;DHT22;10667;51.056;3.732;2022-12-11T07:38:55;2.90;99.90
21019;DHT22;10667;51.056;3.732;2022-12-11T07:41:21;2.90;99.90
21019;DHT22;10667;51.056;3.732;2022-12-11T07:43:48;2.90;99.90
21019;DHT22;10667;51.056;3.732;2022-12-11T07:46:19;3.00;99.90
21019;DHT22;10667;51.056;3.732;2022-12-11T07:48:46;3.10;99.90
21019;DHT22;10667;51.056;3.732;2022-12-11T07:51:39;3.10;99.90
21019;DHT22;10667;51.056;3.732;2022-12-11T07:54:11;2.90;99.90
21019;DHT22;10667;51.056;3.732;2022-12-11T07:56:41;2.80;99.90
21019;DHT22;10667;51.056;3.732;2022-12-11T07:59:07;2.80;99.90
21019;DHT22;10667;51.056;3.732;2022-12-11T08:01:34;2.90;99.90
21019;DHT22;10667;51.056;3.732;2022-12-11T08:04:01;2.90;99.90
21019;DHT22;10667;51.056;3.732;2022-12-11T08:06:30;2.80;99.90
21019;DHT22;10667;51.056;3.732;2022-12-11T08:08:57;2.80;99.90
21019;DHT22;10667;51.056;3.732;2022-12-11T08:11:24;2.90;99.90
21019;DHT22;10667;51.056;3.732;2022-12-11T08:13:50;3.00;99.90
21019;DHT22;10667;51.056;3.732;2022-12-11T08:16:16;3.10;99.90
21019;DHT22;10667;51.056;3.732;2022-12-11T08:18:43;3.10;99.90
21019;DHT22;10667;51.056;3.732;2022-12-11T08:21:12;3.10;99.90
21019;DHT22;10667;51.056;3.732;2022-12-11T08:23:38;3.10;99.90
21019;DHT22;10667;51.056;3.732;2022-12-11T08:26:05;3.20;99.90
21019;DHT22;10667;51.056;3.732;2022-12-11T08:28:32;3.20;99.90
21019;DHT22;10667;51.056;3.732;2022-12-11T08:30:59;3.10;99.90
21019;DHT22;10667;51.056;3.732;2022-12-11T08:33:25;3.00;99.90
21019;DHT22;10667;51.056;3.732;2022-12-11T08:35:51;2.90;99.90
21019;DHT22;10667;51.056;3.732;2022-12-11T08:38:16;2.90;99.90
21019;DHT22;10667;51.056;3.732;2022-12-11T08:40:42;2.90;99.90
21019;DHT22;10667;51.056;3.732;2022-12-11T08:43:08;2.90;99.90
21019;DHT22;10667;51.056;3.732;2022-12-11T08:45:33;2.90;99.90
21019;DHT22;10667;51.056;3.732;2022-12-11T08:47:59;2.80;99.90
21019;DHT22;10667;51.056;3.732;2022-12-11T08:50:25;2.90;99.90
21019;DHT22;10667;51.056;3.732;2022-12-11T08:52:51;3.00;99.90
21019;DHT22;10667;51.056;3.732;2022-12-11T08:55:18;3.00;99.90
21019;DHT22;10667;51.056;3.732;2022-12-11T08:57:44;3.00;99.90
21019;DHT22;10667;51.056;3.732;2022-12-11T09:00:11;2.90;99.90
21019;DHT22;10667;51.056;3.732;2022-12-11T09:02:37;2.80;99.90
21019;DHT22;10667;51.056;3.732;2022-12-11T09:05:04;3.00;99.90
21019;DHT22;10667;51.056;3.732;2022-12-11T09:07:32;2.90;99.90
21019;DHT22;10667;51.056;3.732;2022-12-11T09:09:58;2.90;99.90
21019;DHT22;10667;51.056;3.732;2022-12-11T09:12:25;2.90;99.90
21019;DHT22;10667;51.056;3.732;2022-12-11T09:14:51;2.90;99.90
21019;DHT22;10667;51.056;3.732;2022-12-11T09:17:17;2.80;99.90
21019;DHT22;10667;51.056;3.732;2022-12-11T09:19:42;2.90;99.90
21019;DHT22;10667;51.056;3.732;2022-12-11T09:22:08;3.10;99.90
21019;DHT22;10667;51.056;3.732;2022-12-11T09:24:36;3.20;99.90
21019;DHT22;10667;51.056;3.732;2022-12-11T09:27:02;3.10;99.90
21019;DHT22;10667;51.056;3.732;2022-12-11T09:29:28;3.20;99.90
21019;DHT22;10667;51.056;3.732;2022-12-11T09:31:53;3.30;99.90
21019;DHT22;10667;51.056;3.732;2022-12-11T09:34:20;3.50;99.90
21019;DHT22;10667;51.056;3.732;2022-12-11T09:36:46;3.60;99.90
21019;DHT22;10667;51.056;3.732;2022-12-11T09:39:13;3.60;99.90
21019;DHT22;10667;51.056;3.732;2022-12-11T09:44:23;3.30;99.90
21019;DHT22;10667;51.056;3.732;2022-12-11T09:46:53;3.20;99.90
21019;DHT22;10667;51.056;3.732;2022-12-11T09:54:24;3.20;99.90
21019;DHT22;10667;51.056;3.732;2022-12-11T09:57:09;3.20;99.90
21019;DHT22;10667;51.056;3.732;2022-12-11T10:02:41;3.40;99.90
21019;DHT22;10667;51.056;3.732;2022-12-11T10:07:56;3.50;99.90
21019;DHT22;10667;51.056;3.732;2022-12-11T10:10:50;3.50;99.90
21019;DHT22;10667;51.056;3.732;2022-12-11T10:18:28;3.40;99.90
21019;DHT22;10667;51.056;3.732;2022-12-11T10:20:55;3.40;99.90
21019;DHT22;10667;51.056;3.732;2022-12-11T10:23:49;3.30;99.90
21019;DHT22;10667;51.056;3.732;2022-12-11T10:26:19;3.20;99.90
21019;DHT22;10667;51.056;3.732;2022-12-11T10:28:46;3.00;99.90
21019;DHT22;10667;51.056;3.732;2022-12-11T10:31:16;3.10;99.90
21019;DHT22;10667;51.056;3.732;2022-12-11T10:36:16;3.20;99.90
21019;DHT22;10667;51.056;3.732;2022-12-11T10:38:44;3.30;99.90
21019;DHT22;10667;51.056;3.732;2022-12-11T10:41:12;3.10;99.90
21019;DHT22;10667;51.056;3.732;2022-12-11T10:43:49;3.10;99.90
21019;DHT22;10667;51.056;3.732;2022-12-11T10:46:27;3.00;99.90
21019;DHT22;10667;51.056;3.732;2022-12-11T10:48:55;3.00;99.90
21019;DHT22;10667;51.056;3.732;2022-12-11T10:51:24;3.00;99.90
21019;DHT22;10667;51.056;3.732;2022-12-11T10:54:04;2.90;99.90
21019;DHT22;10667;51.056;3.732;2022-12-11T10:56:32;3.00;99.90
21019;DHT22;10667;51.056;3.732;2022-12-11T10:58:59;2.90;99.90
21019;DHT22;10667;51.056;3.732;2022-12-11T11:01:30;2.90;99.90
21019;DHT22;10667;51.056;3.732;2022-12-11T11:04:12;2.90;99.90
21019;DHT22;10667;51.056;3.732;2022-12-11T11:06:38;3.00;99.90
21019;DHT22;10667;51.056;3.732;2022-12-11T11:09:33;3.00;99.90
21019;DHT22;10667;51.056;3.732;2022-12-11T11:12:00;3.20;99.90
21019;DHT22;10667;51.056;3.732;2022-12-11T11:14:25;3.20;99.90
21019;DHT22;10667;51.056;3.732;2022-12-11T11:16:54;3.40;99.90
21019;DHT22;10667;51.056;3.732;2022-12-11T11:19:24;3.30;99.90
21019;DHT22;10667;51.056;3.732;2022-12-11T11:22:00;3.30;99.90
21019;DHT22;10667;51.056;3.732;2022-12-11T11:24:37;3.40;99.90
21019;DHT22;10667;51.056;3.732;2022-12-11T11:27:33;3.30;99.90
21019;DHT22;10667;51.056;3.732;2022-12-11T11:30:03;3.20;99.90
21019;DHT22;10667;51.056;3.732;2022-12-11T11:32:35;3.20;99.90
21019;DHT22;10667;51.056;3.732;2022-12-11T11:37:40;3.30;99.90
21019;DHT22;10667;51.056;3.732;2022-12-11T11:40:34;3.20;99.90
21019;DHT22;10667;51.056;3.732;2022-12-11T11:43:12;3.00;99.90
21019;DHT22;10667;51.056;3.732;2022-12-11T11:45:51;3.10;99.90
21019;DHT22;10667;51.056;3.732;2022-12-11T11:50:54;3.10;99.90
21019;DHT22;10667;51.056;3.732;2022-12-11T11:53:32;3.00;99.90
21019;DHT22;10667;51.056;3.732;2022-12-11T11:59:53;3.10;99.90
21019;DHT22;10667;51.056;3.732;2022-12-11T12:01:46;3.20;99.90
21019;DHT22;10667;51.056;3.732;2022-12-11T12:04:12;3.00;99.90
21019;DHT22;10667;51.056;3.732;2022-12-11T12:09:44;2.80;99.90
21019;DHT22;10667;51.056;3.732;2022-12-11T12:12:15;2.70;99.90
21019;DHT22;10667;51.056;3.732;2022-12-11T12:17:52;2.70;99.90
21019;DHT22;10667;51.056;3.732;2022-12-11T12:20:36;2.70;99.90
21019;DHT22;10667;51.056;3.732;2022-12-11T12:23:19;2.70;99.90
21019;DHT22;10667;51.056;3.732;2022-12-11T12:26:13;2.80;99.90
21019;DHT22;10667;51.056;3.732;2022-12-11T12:34:43;3.00;99.90
21019;DHT22;10667;51.056;3.732;2022-12-11T12:42:37;2.90;99.90
21019;DHT22;10667;51.056;3.732;2022-12-11T12:45:16;2.80;99.90
21019;DHT22;10667;51.056;3.732;2022-12-11T12:47:44;2.90;99.90
21019;DHT22;10667;51.056;3.732;2022-12-11T12:50:16;2.70;99.90
21019;DHT22;10667;51.056;3.732;2022-12-11T12:52:43;2.70;99.90
21019;DHT22;10667;51.056;3.732;2022-12-11T12:57:54;2.90;99.90
21019;DHT22;10667;51.056;3.732;2022-12-11T13:00:31;3.10;99.90
21019;DHT22;10667;51.056;3.732;2022-12-11T13:03:01;3.20;99.90
21019;DHT22;10667;51.056;3.732;2022-12-11T13:05:29;3.20;99.90
21019;DHT22;10667;51.056;3.732;2022-12-11T13:08:00;3.20;99.90
21019;DHT22;10667;51.056;3.732;2022-12-11T13:10:35;3.20;99.90
21019;DHT22;10667;51.056;3.732;2022-12-11T13:13:02;3.10;99.90
21019;DHT22;10667;51.056;3.732;2022-12-11T13:15:34;3.00;99.90
21019;DHT22;10667;51.056;3.732;2022-12-11T13:18:06;3.00;99.90
21019;DHT22;10667;51.056;3.732;2022-12-11T13:20:50;3.00;99.90
21019;DHT22;10667;51.056;3.732;2022-12-11T13:23:34;3.00;99.90
21019;DHT22;10667;51.056;3.732;2022-12-11T13:26:03;3.00;99.90
21019;DHT22;10667;51.056;3.732;2022-12-11T13:28:46;3.10;99.90
21019;DHT22;10667;51.056;3.732;2022-12-11T13:33:45;3.00;99.90
21019;DHT22;10667;51.056;3.732;2022-12-11T13:38:42;3.00;99.90
21019;DHT22;10667;51.056;3.732;2022-12-11T13:41:10;3.10;99.90
21019;DHT22;10667;51.056;3.732;2022-12-11T13:43:38;3.10;99.90
21019;DHT22;10667;51.056;3.732;2022-12-11T13:46:08;3.10;99.90
21019;DHT22;10667;51.056;3.732;2022-12-11T13:48:39;3.10;99.90
21019;DHT22;10667;51.056;3.732;2022-12-11T13:51:06;3.00;99.90
21019;DHT22;10667;51.056;3.732;2022-12-11T13:53:32;3.10;99.90
21019;DHT22;10667;51.056;3.732;2022-12-11T13:56:03;3.00;99.90
21019;DHT22;10667;51.056;3.732;2022-12-11T13:58:33;3.00;99.90
21019;DHT22;10667;51.056;3.732;2022-12-11T14:03:25;3.00;99.90
21019;DHT22;10667;51.056;3.732;2022-12-11T14:05:52;3.00;99.90
21019;DHT22;10667;51.056;3.732;2022-12-11T14:08:30;3.00;99.90
21019;DHT22;10667;51.056;3.732;2022-12-11T14:10:57;3.10;99.90
21019;DHT22;10667;51.056;3.732;2022-12-11T14:13:33;3.20;99.90
21019;DHT22;10667;51.056;3.732;2022-12-11T14:16:00;3.20;99.90
21019;DHT22;10667;51.056;3.732;2022-12-11T14:18:32;3.10;99.90
21019;DHT22;10667;51.056;3.732;2022-12-11T14:21:01;3.00;99.90
21019;DHT22;10667;51.056;3.732;2022-12-11T14:23:29;3.00;99.90
21019;DHT22;10667;51.056;3.732;2022-12-11T14:26:00;2.90;99.90
21019;DHT22;10667;51.056;3.732;2022-12-11T14:28:29;2.90;99.90
21019;DHT22;10667;51.056;3.732;2022-12-11T14:30:59;2.90;99.90
21019;DHT22;10667;51.056;3.732;2022-12-11T14:33:34;2.90;99.90
21019;DHT22;10667;51.056;3.732;2022-12-11T14:36:02;3.00;99.90
21019;DHT22;10667;51.056;3.732;2022-12-11T14:38:34;2.80;99.90
21019;DHT22;10667;51.056;3.732;2022-12-11T14:41:15;2.90;99.90
21019;DHT22;10667;51.056;3.732;2022-12-11T14:43:50;3.00;99.90
21019;DHT22;10667;51.056;3.732;2022-12-11T14:49:37;3.30;99.90
21019;DHT22;10667;51.056;3.732;2022-12-11T14:52:12;3.20;99.90
21019;DHT22;10667;51.056;3.732;2022-12-11T14:54:43;3.10;99.90
21019;DHT22;10667;51.056;3.732;2022-12-11T14:57:18;3.20;99.90
21019;DHT22;10667;51.056;3.732;2022-12-11T14:59:46;3.10;99.90
21019;DHT22;10667;51.056;3.732;2022-12-11T15:05:18;3.00;99.90
21019;DHT22;10667;51.056;3.732;2022-12-11T15:10:27;3.10;99.90
21019;DHT22;10667;51.056;3.732;2022-12-11T15:12:56;3.10;99.90
21019;DHT22;10667;51.056;3.732;2022-12-11T15:15:23;3.10;99.90
21019;DHT22;10667;51.056;3.732;2022-12-11T15:17:50;3.00;99.90
21019;DHT22;10667;51.056;3.732;2022-12-11T15:20:27;2.90;99.90
21019;DHT22;10667;51.056;3.732;2022-12-11T15:22:57;2.90;99.90
21019;DHT22;10667;51.056;3.732;2022-12-11T15:25:26;3.00;99.90
21019;DHT22;10667;51.056;3.732;2022-12-11T15:28:00;3.00;99.90
21019;DHT22;10667;51.056;3.732;2022-12-11T15:30:29;2.90;99.90
21019;DHT22;10667;51.056;3.732;2022-12-11T15:35:38;3.20;99.90
21019;DHT22;10667;51.056;3.732;2022-12-11T15:38:04;3.30;99.90
21019;DHT22;10667;51.056;3.732;2022-12-11T15:40:30;3.30;99.90
21019;DHT22;10667;51.056;3.732;2022-12-11T15:42:56;3.30;99.90
21019;DHT22;10667;51.056;3.732;2022-12-11T15:45:26;3.30;99.90
21019;DHT22;10667;51.056;3.732;2022-12-11T15:47:53;3.40;99.90
21019;DHT22;10667;51.056;3.732;2022-12-11T15:50:21;3.40;99.90
21019;DHT22;10667;51.056;3.732;2022-12-11T15:52:48;3.30;99.90
21019;DHT22;10667;51.056;3.732;2022-12-11T15:55:14;3.30;99.90
21019;DHT22;10667;51.056;3.732;2022-12-11T15:57:44;3.30;99.90
21019;DHT22;10667;51.056;3.732;2022-12-11T16:00:15;3.30;99.90
21019;DHT22;10667;51.056;3.732;2022-12-11T16:02:43;3.20;99.90
21019;DHT22;10667;51.056;3.732;2022-12-11T16:05:09;3.10;99.90
21019;DHT22;10667;51.056;3.732;2022-12-11T16:07:35;3.10;99.90
21019;DHT22;10667;51.056;3.732;2022-12-11T16:10:01;3.10;99.90
21019;DHT22;10667;51.056;3.732;2022-12-11T16:12:27;3.10;99.90
21019;DHT22;10667;51.056;3.732;2022-12-11T16:14:52;3.00;99.90
21019;DHT22;10667;51.056;3.732;2022-12-11T16:17:18;3.00;99.90
21019;DHT22;10667;51.056;3.732;2022-12-11T16:19:44;3.00;99.90
21019;DHT22;10667;51.056;3.732;2022-12-11T16:22:11;3.00;99.90
21019;DHT22;10667;51.056;3.732;2022-12-11T16:24:38;3.00;99.90
21019;DHT22;10667;51.056;3.732;2022-12-11T16:27:06;3.00;99.90
21019;DHT22;10667;51.056;3.732;2022-12-11T16:29:36;3.10;99.90
21019;DHT22;10667;51.056;3.732;2022-12-11T16:32:03;3.20;99.90
21019;DHT22;10667;51.056;3.732;2022-12-11T16:34:31;3.20;99.90
21019;DHT22;10667;51.056;3.732;2022-12-11T16:36:57;3.30;99.90
21019;DHT22;10667;51.056;3.732;2022-12-11T16:39:23;3.30;99.90
21019;DHT22;10667;51.056;3.732;2022-12-11T16:41:49;3.40;99.90
21019;DHT22;10667;51.056;3.732;2022-12-11T16:44:20;3.30;99.90
21019;DHT22;10667;51.056;3.732;2022-12-11T16:46:46;3.30;99.90
21019;DHT22;10667;51.056;3.732;2022-12-11T16:49:12;3.20;99.90
21019;DHT22;10667;51.056;3.732;2022-12-11T16:51:37;3.30;99.90
21019;DHT22;10667;51.056;3.732;2022-12-11T16:54:03;3.30;99.90
21019;DHT22;10667;51.056;3.732;2022-12-11T16:56:29;3.00;99.90
21019;DHT22;10667;51.056;3.732;2022-12-11T16:58:55;2.80;99.90
21019;DHT22;10667;51.056;3.732;2022-12-11T17:01:21;2.60;99.90
21019;DHT22;10667;51.056;3.732;2022-12-11T17:03:46;2.70;99.90
21019;DHT22;10667;51.056;3.732;2022-12-11T17:06:14;2.70;99.90
21019;DHT22;10667;51.056;3.732;2022-12-11T17:08:41;2.60;99.90
21019;DHT22;10667;51.056;3.732;2022-12-11T17:11:16;2.60;99.90
21019;DHT22;10667;51.056;3.732;2022-12-11T17:13:42;2.60;99.90
21019;DHT22;10667;51.056;3.732;2022-12-11T17:16:11;2.70;99.90
21019;DHT22;10667;51.056;3.732;2022-12-11T17:18:38;2.80;99.90
21019;DHT22;10667;51.056;3.732;2022-12-11T17:21:05;2.80;99.90
21019;DHT22;10667;51.056;3.732;2022-12-11T17:23:31;2.90;99.90
21019;DHT22;10667;51.056;3.732;2022-12-11T17:25:57;2.80;99.90
21019;DHT22;10667;51.056;3.732;2022-12-11T17:28:23;2.90;99.90